createdAt,value
2022-10-17T00:02:25.766Z,22.10
2022-10-17T00:04:52.754Z,26.92
2022-10-17T00:07:19.826Z,26.17
2022-10-17T00:09:46.656Z,25.45
2022-10-17T00:12:13.589Z,25.50
2022-10-17T00:14:40.667Z,25.90
2022-10-17T00:17:07.624Z,24.50
2022-10-17T00:19:35.325Z,21.05
2022-10-17T00:22:02.245Z,20.83
2022-10-17T00:24:31.345Z,47.17
2022-10-17T00:26:58.266Z,25.80
2022-10-17T00:29:25.775Z,25.45
2022-10-17T00:31:58.867Z,23.55
2022-10-17T00:34:26.191Z,18.70
2022-10-17T00:36:53.227Z,17.63
2022-10-17T00:39:20.830Z,20.65
2022-10-17T00:41:47.934Z,22.02
2022-10-17T00:44:33.667Z,24.20
2022-10-17T00:47:05.247Z,20.05
2022-10-17T00:49:35.386Z,25.48
2022-10-17T00:52:06.906Z,21.33
2022-10-17T00:54:37.651Z,25.10
2022-10-17T00:57:05.189Z,25.08
2022-10-17T00:59:34.995Z,25.05
2022-10-17T01:02:17.355Z,24.98
2022-10-17T01:04:47.049Z,23.85
2022-10-17T01:07:14.424Z,24.58
2022-10-17T01:09:42.053Z,24.60
2022-10-17T01:12:24.126Z,24.13
2022-10-17T01:15:19.309Z,25.33
2022-10-17T01:18:11.384Z,21.92
2022-10-17T01:21:03.215Z,20.45
2022-10-17T01:24:02.403Z,22.23
2022-10-17T01:27:20.427Z,24.77
2022-10-17T01:30:10.926Z,23.20
2022-10-17T01:32:47.491Z,24.65
2022-10-17T01:35:24.147Z,25.45
2022-10-17T01:38:27.755Z,27.02
2022-10-17T01:41:10.954Z,24.02
2022-10-17T01:43:43.971Z,25.77
2022-10-17T01:46:18.628Z,27.75
2022-10-17T01:48:47.571Z,27.55
2022-10-17T01:51:25.208Z,25.27
2022-10-17T01:54:15.114Z,24.45
2022-10-17T01:56:43.745Z,26.00
2022-10-17T01:59:33.594Z,26.02
2022-10-17T02:02:02.116Z,25.95
2022-10-17T02:04:29.467Z,28.50
2022-10-17T02:06:56.513Z,31.88
2022-10-17T02:09:27.457Z,26.40
2022-10-17T02:12:09.831Z,25.52
2022-10-17T02:14:36.866Z,25.63
2022-10-17T02:17:15.030Z,29.13
2022-10-17T02:19:58.185Z,23.38
2022-10-17T02:22:48.544Z,32.03
2022-10-17T02:25:21.446Z,29.83
2022-10-17T02:27:59.270Z,27.08
2022-10-17T02:30:37.693Z,29.02
2022-10-17T02:33:10.345Z,26.23
2022-10-17T02:35:42.004Z,23.90
2022-10-17T02:38:11.266Z,26.98
2022-10-17T02:40:40.147Z,26.48
2022-10-17T02:43:07.435Z,24.50
2022-10-17T02:45:37.286Z,25.65
2022-10-17T02:48:37.854Z,30.20
2022-10-17T02:51:23.564Z,32.38
2022-10-17T02:54:09.275Z,28.88
2022-10-17T02:56:44.431Z,27.55
2022-10-17T02:59:14.646Z,28.88
2022-10-17T03:01:43.777Z,28.33
2022-10-17T03:04:14.955Z,25.40
2022-10-17T03:09:09.708Z,27.63
2022-10-17T03:11:36.804Z,33.67
2022-10-17T03:14:04.662Z,29.10
2022-10-17T03:16:32.152Z,26.67
2022-10-17T03:18:59.241Z,28.23
2022-10-17T03:21:26.364Z,26.05
2022-10-17T03:23:53.426Z,23.23
2022-10-17T03:26:22.536Z,28.02
2022-10-17T03:28:53.496Z,24.02
2022-10-17T03:31:22.963Z,23.52
2022-10-17T03:33:51.592Z,25.50
2022-10-17T03:36:19.608Z,26.80
2022-10-17T03:38:47.921Z,23.70
2022-10-17T03:41:16.946Z,22.67
2022-10-17T03:43:43.869Z,24.17
2022-10-17T03:46:10.930Z,27.23
2022-10-17T03:48:38.425Z,26.83
2022-10-17T03:51:08.213Z,27.88
2022-10-17T03:53:41.016Z,25.42
2022-10-17T03:56:16.168Z,25.52
2022-10-17T03:58:45.268Z,29.63
2022-10-17T04:01:15.273Z,32.03
2022-10-17T04:03:43.104Z,32.15
2022-10-17T04:06:12.908Z,32.47
2022-10-17T04:08:43.302Z,29.42
2022-10-17T04:11:16.782Z,28.23
2022-10-17T04:13:45.085Z,28.33
2022-10-17T04:16:18.653Z,26.90
2022-10-17T04:18:55.543Z,27.33
2022-10-17T04:23:56.763Z,30.80
2022-10-17T04:26:40.504Z,26.08
2022-10-17T04:29:07.694Z,27.88
2022-10-17T04:31:34.929Z,27.92
2022-10-17T04:34:10.003Z,28.42
2022-10-17T04:36:38.229Z,30.17
2022-10-17T04:39:06.104Z,28.30
2022-10-17T04:41:33.329Z,28.20
2022-10-17T04:44:02.305Z,28.83
2022-10-17T04:46:34.366Z,30.65
2022-10-17T04:49:01.388Z,28.52
2022-10-17T04:51:29.317Z,29.50
2022-10-17T04:54:22.567Z,28.50
2022-10-17T04:56:55.896Z,28.90
2022-10-17T04:59:23.048Z,29.30
2022-10-17T05:02:04.906Z,26.65
2022-10-17T05:04:33.608Z,25.55
2022-10-17T05:07:00.706Z,29.55
2022-10-17T05:09:46.192Z,30.92
2022-10-17T05:12:13.465Z,30.75
2022-10-17T05:14:44.403Z,32.65
2022-10-17T05:17:11.530Z,32.72
2022-10-17T05:19:39.274Z,28.48
2022-10-17T05:22:08.256Z,27.20
2022-10-17T05:24:35.526Z,28.92
2022-10-17T05:27:03.696Z,28.63
2022-10-17T05:29:30.736Z,28.90
2022-10-17T05:32:06.252Z,31.95
2022-10-17T05:34:35.132Z,30.23
2022-10-17T05:37:02.107Z,29.30
2022-10-17T05:39:29.425Z,28.48
2022-10-17T05:41:57.886Z,29.95
2022-10-17T05:44:25.230Z,33.17
2022-10-17T05:46:55.990Z,37.00
2022-10-17T05:49:33.333Z,36.50
2022-10-17T05:52:10.484Z,41.55
2022-10-17T05:54:51.464Z,36.70
2022-10-17T05:57:18.883Z,34.03
2022-10-17T05:59:45.807Z,34.80
2022-10-17T06:02:19.699Z,35.25
2022-10-17T06:04:48.927Z,32.58
2022-10-17T06:07:17.470Z,28.33
2022-10-17T06:12:13.224Z,28.15
2022-10-17T06:14:41.783Z,25.98
2022-10-17T06:17:13.427Z,31.08
2022-10-17T06:19:44.985Z,30.05
2022-10-17T06:22:15.173Z,29.67
2022-10-17T06:24:42.774Z,33.88
2022-10-17T06:27:11.980Z,31.08
2022-10-17T06:29:41.243Z,30.85
2022-10-17T06:32:11.159Z,30.10
2022-10-17T06:34:42.379Z,29.10
2022-10-17T06:37:09.912Z,29.60
2022-10-17T06:39:39.177Z,31.23
2022-10-17T06:42:18.962Z,29.88
2022-10-17T06:44:49.399Z,29.45
2022-10-17T06:47:36.044Z,28.10
2022-10-17T06:50:12.464Z,26.02
2022-10-17T06:52:51.822Z,25.42
2022-10-17T06:55:37.463Z,26.92
2022-10-17T06:58:20.483Z,26.23
2022-10-17T07:01:01.434Z,25.30
2022-10-17T07:03:29.261Z,23.85
2022-10-17T07:05:56.983Z,23.35
2022-10-17T07:08:24.902Z,24.55
2022-10-17T07:10:53.584Z,23.38
2022-10-17T07:13:21.183Z,23.42
2022-10-17T07:15:48.545Z,24.38
2022-10-17T07:18:17.994Z,26.08
2022-10-17T07:20:53.845Z,27.98
2022-10-17T07:23:21.502Z,27.15
2022-10-17T07:25:48.635Z,27.17
2022-10-17T07:28:17.883Z,23.67
2022-10-17T07:30:49.304Z,21.50
2022-10-17T07:33:17.789Z,20.40
2022-10-17T07:35:44.903Z,19.45
2022-10-17T07:38:11.925Z,19.42
2022-10-17T07:40:39.022Z,25.70
2022-10-17T07:43:06.682Z,26.35
2022-10-17T07:45:33.783Z,19.65
2022-10-17T07:48:00.802Z,19.60
2022-10-17T07:50:27.884Z,18.50
2022-10-17T07:52:54.906Z,18.23
2022-10-17T07:55:22.111Z,18.60
2022-10-17T07:57:49.093Z,19.10
2022-10-17T08:00:16.088Z,18.35
2022-10-17T08:02:43.062Z,19.35
2022-10-17T08:05:10.142Z,21.63
2022-10-17T08:07:37.203Z,18.65
2022-10-17T08:10:04.685Z,16.50
2022-10-17T08:12:34.507Z,18.08
2022-10-17T08:15:02.528Z,18.35
2022-10-17T08:17:29.963Z,16.38
2022-10-17T08:19:57.062Z,15.85
2022-10-17T08:22:24.183Z,13.60
2022-10-17T08:24:51.150Z,9.50
2022-10-17T08:27:23.983Z,8.75
2022-10-17T08:29:54.695Z,9.73
2022-10-17T08:32:24.986Z,9.50
2022-10-17T08:34:55.763Z,8.25
2022-10-17T08:37:23.605Z,3.72
2022-10-17T08:39:50.637Z,3.60
2022-10-17T08:42:20.442Z,3.70
2022-10-17T08:45:01.486Z,3.53
2022-10-17T08:47:41.386Z,3.92
2022-10-17T08:50:29.785Z,4.53
2022-10-17T08:53:35.811Z,4.82
2022-10-17T08:56:11.959Z,4.15
2022-10-17T08:58:42.344Z,4.68
2022-10-17T09:01:30.926Z,4.10
2022-10-17T09:04:03.852Z,3.38
2022-10-17T09:06:38.162Z,3.17
2022-10-17T09:09:14.200Z,2.95
2022-10-17T09:12:02.705Z,2.65
2022-10-17T09:14:49.404Z,2.95
2022-10-17T09:17:38.705Z,2.47
2022-10-17T09:20:30.347Z,3.35
2022-10-17T09:23:04.462Z,3.05
2022-10-17T09:25:39.963Z,2.60
2022-10-17T09:28:31.441Z,2.33
2022-10-17T09:31:00.225Z,2.47
2022-10-17T09:33:59.203Z,2.30
2022-10-17T09:36:35.610Z,2.63
2022-10-17T09:39:05.626Z,2.33
2022-10-17T09:41:46.805Z,2.88
2022-10-17T09:44:32.900Z,2.28
2022-10-17T09:47:25.211Z,2.33
2022-10-17T09:49:52.873Z,2.28
2022-10-17T09:52:29.094Z,2.33
2022-10-17T09:55:20.703Z,2.45
2022-10-17T09:58:06.434Z,2.25
2022-10-17T10:00:35.074Z,2.42
2022-10-17T10:03:21.804Z,2.42
2022-10-17T10:06:13.422Z,2.40
2022-10-17T10:08:55.418Z,2.80
2022-10-17T10:14:13.692Z,2.50
2022-10-17T10:16:43.544Z,2.35
2022-10-17T10:19:31.204Z,5.15
2022-10-17T10:22:19.425Z,2.03
2022-10-17T10:24:46.702Z,2.95
2022-10-17T10:27:16.462Z,2.80
2022-10-17T10:29:49.503Z,2.28
2022-10-17T10:32:34.263Z,2.88
2022-10-17T10:35:06.304Z,2.33
2022-10-17T10:37:38.702Z,2.40
2022-10-17T10:40:08.199Z,2.50
2022-10-17T10:42:39.985Z,2.40
2022-10-17T10:47:59.124Z,2.20
2022-10-17T10:50:49.582Z,2.40
2022-10-17T10:53:47.410Z,2.28
2022-10-17T10:56:21.626Z,2.30
2022-10-17T10:58:56.185Z,2.78
2022-10-17T11:01:41.904Z,2.42
2022-10-17T11:04:23.882Z,2.47
2022-10-17T11:09:36.943Z,2.47
2022-10-17T11:12:25.982Z,2.72
2022-10-17T11:15:14.742Z,3.15
2022-10-17T11:18:04.704Z,2.70
2022-10-17T11:20:34.662Z,2.58
2022-10-17T11:23:39.243Z,2.55
2022-10-17T11:26:11.644Z,3.22
2022-10-17T11:28:38.771Z,3.22
2022-10-17T11:31:15.103Z,5.38
2022-10-17T11:33:54.543Z,2.80
2022-10-17T11:36:26.402Z,2.53
2022-10-17T11:39:04.343Z,2.70
2022-10-17T11:41:36.604Z,2.28
2022-10-17T11:44:20.722Z,2.50
2022-10-17T11:46:51.683Z,2.90
2022-10-17T11:49:24.297Z,2.87
2022-10-17T11:52:54.934Z,3.00
2022-10-17T11:55:28.543Z,2.20
2022-10-17T11:58:18.001Z,2.25
2022-10-17T12:01:16.326Z,1.92
2022-10-17T12:03:53.543Z,2.33
2022-10-17T12:06:51.171Z,2.13
2022-10-17T12:09:24.523Z,4.65
2022-10-17T12:11:57.614Z,2.35
2022-10-17T12:14:41.675Z,2.40
2022-10-17T12:17:38.973Z,2.70
2022-10-17T12:20:44.783Z,2.83
2022-10-17T12:23:12.743Z,3.53
2022-10-17T12:26:04.626Z,3.45
2022-10-17T12:28:41.378Z,4.10
2022-10-17T12:31:18.063Z,4.20
2022-10-17T12:33:50.506Z,4.63
2022-10-17T12:36:17.564Z,4.30
2022-10-17T12:39:07.817Z,4.40
2022-10-17T12:41:41.488Z,4.53
2022-10-17T12:44:14.925Z,4.53
2022-10-17T12:47:08.698Z,4.15
2022-10-17T12:49:56.500Z,3.05
2022-10-17T12:52:37.343Z,3.13
2022-10-17T12:55:12.192Z,3.35
2022-10-17T12:58:08.227Z,3.08
2022-10-17T13:01:18.941Z,3.65
2022-10-17T13:03:48.483Z,3.50
2022-10-17T13:06:21.488Z,3.25
2022-10-17T13:08:59.767Z,3.55
2022-10-17T13:11:31.903Z,3.65
2022-10-17T13:14:01.500Z,3.45
2022-10-17T13:16:38.180Z,3.55
2022-10-17T13:19:14.803Z,3.88
2022-10-17T13:22:17.324Z,4.20
2022-10-17T13:24:44.544Z,4.88
2022-10-17T13:27:31.384Z,5.80
2022-10-17T13:30:02.550Z,4.30
2022-10-17T13:32:41.159Z,4.70
2022-10-17T13:35:14.761Z,4.85
2022-10-17T13:37:48.191Z,5.82
2022-10-17T13:43:15.782Z,4.85
2022-10-17T13:45:49.163Z,5.20
2022-10-17T13:48:27.944Z,6.35
2022-10-17T13:51:02.687Z,4.80
2022-10-17T13:53:31.940Z,5.50
2022-10-17T13:56:28.798Z,5.72
2022-10-17T13:59:05.193Z,5.82
2022-10-17T14:01:32.623Z,7.28
2022-10-17T14:04:09.430Z,6.10
2022-10-17T14:06:46.272Z,6.13
2022-10-17T14:09:28.044Z,6.68
2022-10-17T14:12:13.759Z,6.13
2022-10-17T14:15:08.735Z,6.63
2022-10-17T14:17:29.719Z,7.30
2022-10-17T14:20:36.333Z,7.10
2022-10-17T14:23:10.783Z,6.30
2022-10-17T14:25:40.212Z,6.43
2022-10-17T14:28:15.247Z,6.55
2022-10-17T14:30:58.856Z,6.97
2022-10-17T14:33:31.118Z,7.15
2022-10-17T14:36:00.599Z,6.38
2022-10-17T14:38:28.720Z,7.55
2022-10-17T14:41:30.272Z,8.50
2022-10-17T14:43:59.463Z,9.18
2022-10-17T14:46:27.150Z,13.20
2022-10-17T14:48:56.744Z,10.35
2022-10-17T14:51:23.883Z,9.07
2022-10-17T14:54:30.885Z,9.25
2022-10-17T14:56:58.137Z,11.30
2022-10-17T14:59:52.029Z,11.95
2022-10-17T15:02:13.534Z,11.88
2022-10-17T15:04:40.965Z,10.93
2022-10-17T15:07:09.817Z,10.32
2022-10-17T15:09:36.776Z,9.85
2022-10-17T15:12:06.889Z,10.60
2022-10-17T15:14:33.934Z,10.43
2022-10-17T15:17:01.002Z,10.50
2022-10-17T15:19:28.142Z,11.20
2022-10-17T15:21:55.218Z,10.30
2022-10-17T15:24:22.116Z,13.25
2022-10-17T15:26:49.740Z,13.73
2022-10-17T15:29:16.843Z,13.40
2022-10-17T15:31:43.838Z,12.45
2022-10-17T15:34:10.969Z,13.00
2022-10-17T15:36:41.966Z,14.27
2022-10-17T15:39:09.909Z,16.52
2022-10-17T15:41:36.837Z,17.95
2022-10-17T15:44:03.917Z,17.38
2022-10-17T15:46:33.586Z,18.85
2022-10-17T15:49:11.746Z,18.73
2022-10-17T15:51:39.097Z,17.05
2022-10-17T15:54:06.719Z,16.42
2022-10-17T15:56:38.730Z,15.75
2022-10-17T15:59:08.724Z,15.68
2022-10-17T16:01:36.144Z,16.83
2022-10-17T16:04:03.852Z,19.77
2022-10-17T16:06:31.156Z,33.97
2022-10-17T16:08:58.323Z,31.08
2022-10-17T16:11:32.985Z,25.67
2022-10-17T16:14:02.558Z,19.63
2022-10-17T16:16:30.464Z,18.27
2022-10-17T16:18:57.445Z,19.88
2022-10-17T16:24:03.006Z,19.63
2022-10-17T16:26:30.324Z,20.17
2022-10-17T16:28:58.362Z,20.23
2022-10-17T16:31:29.501Z,20.10
2022-10-17T16:33:57.867Z,20.03
2022-10-17T16:36:25.147Z,21.85
2022-10-17T16:38:54.136Z,21.52
2022-10-17T16:41:24.746Z,21.30
2022-10-17T16:43:53.387Z,21.33
2022-10-17T16:46:21.126Z,21.80
2022-10-17T16:48:48.727Z,22.85
2022-10-17T16:51:18.108Z,23.00
2022-10-17T16:53:46.447Z,23.17
2022-10-17T16:56:15.794Z,25.13
2022-10-17T16:58:43.066Z,23.30
2022-10-17T17:01:13.524Z,25.35
2022-10-17T17:03:42.464Z,22.83
2022-10-17T17:06:12.981Z,23.25
2022-10-17T17:08:40.724Z,22.88
2022-10-17T17:11:12.906Z,23.77
2022-10-17T17:13:41.264Z,25.10
2022-10-17T17:16:09.888Z,24.50
2022-10-17T17:18:37.424Z,24.02
2022-10-17T17:21:06.280Z,25.42
2022-10-17T17:23:35.425Z,24.52
2022-10-17T17:26:05.071Z,24.88
2022-10-17T17:28:33.290Z,23.88
2022-10-17T17:31:01.760Z,24.55
2022-10-17T17:33:30.310Z,25.33
2022-10-17T17:35:58.835Z,26.40
2022-10-17T17:38:26.861Z,25.58
2022-10-17T17:40:54.062Z,24.65
2022-10-17T17:43:21.504Z,24.08
2022-10-17T17:45:48.495Z,24.58
2022-10-17T17:48:15.731Z,23.30
2022-10-17T17:50:43.368Z,22.75
2022-10-17T17:53:11.544Z,23.48
2022-10-17T17:55:38.527Z,24.02
2022-10-17T17:58:06.154Z,24.15
2022-10-17T18:00:33.346Z,23.77
2022-10-17T18:03:00.423Z,23.00
2022-10-17T18:05:27.544Z,23.90
2022-10-17T18:07:54.663Z,24.63
2022-10-17T18:10:21.668Z,22.30
2022-10-17T18:12:48.694Z,23.52
2022-10-17T18:15:16.053Z,22.58
2022-10-17T18:17:43.283Z,22.60
2022-10-17T18:20:10.849Z,22.73
2022-10-17T18:22:38.123Z,22.10
2022-10-17T18:25:06.911Z,22.30
2022-10-17T18:27:34.039Z,21.75
2022-10-17T18:30:01.104Z,22.77
2022-10-17T18:32:31.756Z,22.13
2022-10-17T18:34:59.379Z,20.90
2022-10-17T18:37:26.793Z,21.90
2022-10-17T18:39:56.054Z,20.45
2022-10-17T18:42:23.386Z,22.27
2022-10-17T18:44:50.768Z,20.70
2022-10-17T18:47:17.837Z,20.63
2022-10-17T18:49:45.054Z,21.33
2022-10-17T18:52:12.005Z,19.98
2022-10-17T18:54:39.183Z,19.48
2022-10-17T18:57:06.404Z,19.60
2022-10-17T18:59:33.665Z,19.85
2022-10-17T19:02:00.864Z,20.27
2022-10-17T19:04:28.085Z,20.13
2022-10-17T19:06:55.204Z,20.30
2022-10-17T19:09:22.344Z,19.88
2022-10-17T19:11:49.369Z,20.73
2022-10-17T19:14:16.442Z,20.08
2022-10-17T19:16:46.088Z,20.15
2022-10-17T19:19:20.818Z,19.95
2022-10-17T19:21:48.535Z,19.85
2022-10-17T19:24:19.316Z,20.33
2022-10-17T19:26:47.575Z,20.73
2022-10-17T19:29:15.680Z,19.95
2022-10-17T19:31:43.419Z,19.70
2022-10-17T19:34:11.779Z,19.17
2022-10-17T19:36:39.366Z,19.77
2022-10-17T19:39:10.547Z,19.00
2022-10-17T19:41:38.985Z,19.58
2022-10-17T19:44:07.309Z,18.77
2022-10-17T19:46:35.426Z,19.33
2022-10-17T19:49:03.721Z,19.00
2022-10-17T19:51:31.604Z,17.75
2022-10-17T19:54:03.300Z,19.27
2022-10-17T19:58:59.694Z,18.33
2022-10-17T20:01:29.459Z,17.23
2022-10-17T20:03:57.487Z,17.58
2022-10-17T20:06:25.225Z,18.20
2022-10-17T20:08:53.071Z,17.85
2022-10-17T20:11:25.431Z,17.90
2022-10-17T20:13:53.743Z,16.50
2022-10-17T20:16:23.472Z,16.35
2022-10-17T20:18:51.906Z,16.08
2022-10-17T20:21:24.959Z,15.32
2022-10-17T20:23:52.182Z,15.65
2022-10-17T20:26:37.133Z,14.95
2022-10-17T20:29:11.489Z,15.25
2022-10-17T20:31:40.028Z,15.52
2022-10-17T20:34:07.404Z,14.63
2022-10-17T20:36:37.444Z,14.68
2022-10-17T20:39:05.865Z,15.10
2022-10-17T20:41:33.329Z,14.85
2022-10-17T20:44:00.479Z,13.82
2022-10-17T20:46:36.892Z,14.70
2022-10-17T20:49:08.131Z,13.70
2022-10-17T20:51:35.951Z,14.65
2022-10-17T20:54:03.658Z,14.95
2022-10-17T20:56:32.505Z,13.77
2022-10-17T20:59:01.827Z,14.10
2022-10-17T21:01:30.043Z,14.23
2022-10-17T21:04:06.196Z,13.68
2022-10-17T21:06:43.247Z,14.38
2022-10-17T21:09:10.366Z,13.73
2022-10-17T21:11:37.369Z,12.90
2022-10-17T21:14:06.288Z,13.32
2022-10-17T21:16:35.629Z,13.90
2022-10-17T21:19:03.931Z,14.13
2022-10-17T21:21:36.108Z,12.98
2022-10-17T21:24:05.594Z,12.95
2022-10-17T21:26:34.458Z,12.60
2022-10-17T21:29:05.616Z,13.30
2022-10-17T21:31:43.644Z,12.00
2022-10-17T21:34:13.008Z,12.65
2022-10-17T21:36:40.328Z,12.68
2022-10-17T21:41:34.414Z,12.02
2022-10-17T21:44:07.764Z,11.70
2022-10-17T21:46:34.909Z,12.27
2022-10-17T21:49:01.852Z,12.73
2022-10-17T21:51:29.065Z,11.93
2022-10-17T21:53:57.411Z,12.25
2022-10-17T21:56:28.265Z,11.20
2022-10-17T21:58:55.749Z,11.82
2022-10-17T22:01:28.255Z,11.73
2022-10-17T22:03:57.266Z,11.77
2022-10-17T22:06:43.012Z,11.55
2022-10-17T22:09:16.289Z,11.73
2022-10-17T22:11:46.672Z,11.05
2022-10-17T22:14:16.714Z,12.05
2022-10-17T22:16:45.360Z,11.60
2022-10-17T22:19:14.767Z,10.93
2022-10-17T22:21:41.667Z,11.20
2022-10-17T22:24:12.787Z,11.05
2022-10-17T22:26:40.621Z,11.80
2022-10-17T22:29:08.804Z,10.45
2022-10-17T22:31:36.074Z,10.70
2022-10-17T22:34:05.160Z,11.30
2022-10-17T22:36:33.167Z,11.00
2022-10-17T22:39:00.237Z,10.30
2022-10-17T22:41:27.154Z,9.98
2022-10-17T22:43:54.581Z,10.57
2022-10-17T22:46:21.648Z,10.55
2022-10-17T22:48:48.632Z,9.90
2022-10-17T22:51:15.785Z,9.85
2022-10-17T22:53:42.826Z,10.48
2022-10-17T22:56:12.469Z,9.35
2022-10-17T22:58:39.669Z,9.95
2022-10-17T23:01:08.490Z,9.57
2022-10-17T23:03:35.907Z,10.50
2022-10-17T23:06:03.395Z,9.75
2022-10-17T23:08:30.587Z,9.52
2022-10-17T23:10:57.755Z,9.43
2022-10-17T23:13:25.041Z,9.90
2022-10-17T23:15:53.505Z,9.32
2022-10-17T23:18:21.810Z,9.68
2022-10-17T23:20:49.245Z,9.30
2022-10-17T23:23:16.824Z,9.80
2022-10-17T23:25:43.943Z,9.63
2022-10-17T23:28:11.185Z,9.05
2022-10-17T23:30:39.304Z,8.80
2022-10-17T23:33:07.074Z,8.73
2022-10-17T23:35:34.624Z,8.90
2022-10-17T23:38:01.798Z,8.63
2022-10-17T23:40:29.902Z,8.38
2022-10-17T23:42:56.984Z,8.48
2022-10-17T23:45:24.000Z,8.43
2022-10-17T23:47:51.066Z,8.23
2022-10-17T23:50:18.156Z,8.13
2022-10-17T23:52:45.248Z,7.40
2022-10-17T23:55:12.194Z,6.72
2022-10-17T23:57:39.192Z,7.30
